createdAt,value
2022-10-05T00:00:25.113Z,8.9
2022-10-05T00:02:41.966Z,7.8
2022-10-05T00:04:58.811Z,8.1
2022-10-05T00:07:15.472Z,8.4
2022-10-05T00:09:31.316Z,7.9
2022-10-05T00:11:47.412Z,5.9
2022-10-05T00:14:03.073Z,8.4
2022-10-05T00:16:19.385Z,4.8
2022-10-05T00:18:36.469Z,9
2022-10-05T00:20:53.291Z,8.1
2022-10-05T00:23:10.312Z,8.1
2022-10-05T00:25:27.133Z,7.9
2022-10-05T00:27:44.095Z,8.2
2022-10-05T00:30:00.894Z,7.4
2022-10-05T00:32:17.676Z,8.4
2022-10-05T00:34:34.554Z,8.3
2022-10-05T00:36:51.599Z,7.9
2022-10-05T00:39:08.451Z,8.2
2022-10-05T00:41:25.167Z,8.3
2022-10-05T00:43:40.889Z,8.6
2022-10-05T00:45:56.216Z,5.9
2022-10-05T00:48:12.676Z,4.4
2022-10-05T00:50:29.634Z,8.1
2022-10-05T00:52:46.765Z,7.8
2022-10-05T00:55:03.494Z,8
2022-10-05T00:57:19.089Z,7.9
2022-10-05T00:59:34.574Z,5.4
2022-10-05T01:01:51.064Z,4.3
2022-10-05T01:04:08.231Z,8.6
2022-10-05T01:06:24.970Z,8.1
2022-10-05T01:08:40.888Z,8.1
2022-10-05T01:10:57.146Z,5.8
2022-10-05T01:13:14.393Z,9
2022-10-05T01:15:31.197Z,8.5
2022-10-05T01:17:48.096Z,8.3
2022-10-05T01:20:04.939Z,7.9
2022-10-05T01:22:21.033Z,8.6
2022-10-05T01:24:37.073Z,5.1
2022-10-05T01:26:53.908Z,8.7
2022-10-05T01:29:10.976Z,8.5
2022-10-05T01:31:26.704Z,8.4
2022-10-05T01:33:43.226Z,5
2022-10-05T01:36:00.084Z,9.3
2022-10-05T01:38:17.180Z,8.2
2022-10-05T01:40:33.933Z,8.3
2022-10-05T01:42:50.731Z,8.4
2022-10-05T01:45:07.879Z,7.7
2022-10-05T01:47:24.658Z,8.5
2022-10-05T01:49:40.586Z,8.2
2022-10-05T01:51:56.875Z,5.7
2022-10-05T01:54:12.888Z,8.1
2022-10-05T01:56:28.094Z,4.5
2022-10-05T01:58:44.763Z,4.7
2022-10-05T02:01:01.781Z,8.8
2022-10-05T02:03:18.631Z,8.1
2022-10-05T02:05:59.826Z,7.6
2022-10-05T02:08:15.474Z,7.8
2022-10-05T02:10:31.728Z,5
2022-10-05T02:12:48.627Z,8
2022-10-05T02:15:04.384Z,7.8
2022-10-05T02:17:20.732Z,4.2
2022-10-05T02:19:37.610Z,8.5
2022-10-05T02:21:53.397Z,7.8
2022-10-05T02:24:09.759Z,4.3
2022-10-05T02:26:26.672Z,8
2022-10-05T02:28:43.590Z,7.4
2022-10-05T02:31:00.409Z,7.2
2022-10-05T02:33:17.543Z,7.2
2022-10-05T02:35:34.007Z,7.3
2022-10-05T02:37:49.703Z,6.8
2022-10-05T02:40:05.953Z,3.9
2022-10-05T02:42:22.867Z,7.3
2022-10-05T02:44:39.779Z,6.9
2022-10-05T02:46:57.539Z,6.9
2022-10-05T02:49:13.461Z,6.8
2022-10-05T02:51:30.303Z,7.1
2022-10-05T02:53:47.128Z,6.6
2022-10-05T02:56:03.960Z,6.8
2022-10-05T02:58:19.607Z,6.9
2022-10-05T03:00:35.991Z,4.3
2022-10-05T03:02:52.888Z,7.6
2022-10-05T03:05:09.801Z,6.8
2022-10-05T03:07:26.622Z,6.8
2022-10-05T03:09:43.496Z,6.7
2022-10-05T03:11:59.101Z,6.8
2022-10-05T03:14:15.414Z,3.5
2022-10-05T03:16:32.242Z,7.3
2022-10-05T03:18:49.317Z,6.9
2022-10-05T03:21:06.000Z,6.6
2022-10-05T03:23:22.881Z,7.1
2022-10-05T03:25:39.730Z,7.3
2022-10-05T03:27:56.698Z,6.8
2022-10-05T03:30:12.216Z,6.9
2022-10-05T03:32:28.569Z,3.5
2022-10-05T03:34:44.892Z,6.9
2022-10-05T03:37:00.812Z,2.8
2022-10-05T03:39:17.802Z,6.8
2022-10-05T03:41:34.853Z,6.8
2022-10-05T03:43:51.529Z,6.6
2022-10-05T03:46:08.476Z,6.9
2022-10-05T03:48:25.218Z,6.4
2022-10-05T03:50:42.002Z,6.9
2022-10-05T03:52:58.867Z,6.1
2022-10-05T03:55:15.754Z,5.9
2022-10-05T03:57:32.614Z,6.5
2022-10-05T03:59:49.384Z,5.7
2022-10-05T04:02:06.229Z,6
2022-10-05T04:04:23.368Z,6.3
2022-10-05T04:06:39.288Z,7
2022-10-05T04:08:54.212Z,3.2
2022-10-05T04:11:10.834Z,2.8
2022-10-05T04:13:27.842Z,6.5
2022-10-05T04:15:43.508Z,6.8
2022-10-05T04:18:00.031Z,2.8
2022-10-05T04:20:17.800Z,6.7
2022-10-05T04:22:33.894Z,7.1
2022-10-05T04:24:50.859Z,6.1
2022-10-05T04:27:07.617Z,6.7
2022-10-05T04:29:24.534Z,5.8
2022-10-05T04:31:41.558Z,6.2
2022-10-05T04:33:58.183Z,6.3
2022-10-05T04:36:15.093Z,7.4
2022-10-05T04:38:30.877Z,6.8
2022-10-05T04:40:47.118Z,3.2
2022-10-05T04:43:04.160Z,7.1
2022-10-05T04:45:19.918Z,8
2022-10-05T04:47:36.162Z,3.4
2022-10-05T04:49:53.367Z,7.2
2022-10-05T04:52:09.082Z,5.9
2022-10-05T04:54:25.506Z,3.4
2022-10-05T04:56:42.491Z,7.1
2022-10-05T04:58:59.429Z,7.3
2022-10-05T05:01:16.436Z,7.1
2022-10-05T05:03:33.338Z,7.9
2022-10-05T05:06:12.408Z,7.3
2022-10-05T05:08:18.800Z,4.3
2022-10-05T05:10:35.521Z,4.8
2022-10-05T05:12:52.422Z,8.3
2022-10-05T05:15:09.584Z,7.6
2022-10-05T05:17:26.370Z,7.8
2022-10-05T05:19:43.278Z,8.3
2022-10-05T05:21:59.232Z,8.5
2022-10-05T05:24:15.488Z,5.4
2022-10-05T05:26:35.571Z,9.4
2022-10-05T05:28:49.394Z,10.3
2022-10-05T05:31:06.533Z,10.3
2022-10-05T05:33:23.579Z,10.3
2022-10-05T05:35:40.245Z,10.7
2022-10-05T05:37:56.304Z,11.2
2022-10-05T05:40:12.646Z,7.3
2022-10-05T05:42:29.824Z,11.9
2022-10-05T05:44:46.681Z,11.3
2022-10-05T05:47:16.420Z,11.2
2022-10-05T05:49:32.191Z,11.9
2022-10-05T05:51:47.533Z,8.5
2022-10-05T05:54:03.181Z,8.9
2022-10-05T05:56:19.715Z,8.9
2022-10-05T05:58:36.777Z,13.5
2022-10-05T06:00:53.627Z,14.1
2022-10-05T06:03:14.016Z,14.4
2022-10-05T06:05:30.649Z,14.1
2022-10-05T06:07:47.779Z,14.9
2022-10-05T06:10:04.633Z,15.3
2022-10-05T06:12:21.754Z,15.3
2022-10-05T06:14:38.460Z,15.1
2022-10-05T06:16:55.632Z,14.8
2022-10-05T06:19:11.084Z,15.4
2022-10-05T06:21:27.396Z,11.4
2022-10-05T06:23:44.414Z,15.1
2022-10-05T06:26:01.507Z,16
2022-10-05T06:28:17.094Z,15.7
2022-10-05T06:30:33.312Z,13
2022-10-05T06:32:50.348Z,15.6
2022-10-05T06:37:24.206Z,17.9
2022-10-05T06:41:57.745Z,18.4
2022-10-05T06:44:14.427Z,18.4
2022-10-05T06:46:31.224Z,19.1
2022-10-05T06:48:46.760Z,18.9
2022-10-05T06:51:01.677Z,14.9
2022-10-05T06:53:18.289Z,15.7
2022-10-05T06:55:34.860Z,18.4
2022-10-05T06:57:50.563Z,19.6
2022-10-05T07:00:06.566Z,17.1
2022-10-05T07:02:23.485Z,20.6
2022-10-05T07:04:39.891Z,22.7
2022-10-05T07:06:55.279Z,22.3
2022-10-05T07:09:11.673Z,18.9
2022-10-05T07:11:28.301Z,21.7
2022-10-05T07:13:44.807Z,20.6
2022-10-05T07:16:01.279Z,21.2
2022-10-05T07:18:17.799Z,22
2022-10-05T07:20:34.495Z,23.1
2022-10-05T07:22:50.830Z,22.9
2022-10-05T07:25:07.281Z,23.6
2022-10-05T07:27:23.714Z,23.8
2022-10-05T07:29:38.931Z,24.1
2022-10-05T07:31:54.934Z,21.4
2022-10-05T07:34:11.591Z,25.1
2022-10-05T07:36:27.760Z,25.6
2022-10-05T07:38:44.242Z,25.7
2022-10-05T07:41:16.410Z,26.6
2022-10-05T07:43:51.374Z,26.1
2022-10-05T07:46:03.543Z,27.1
2022-10-05T07:48:19.258Z,24.4
2022-10-05T07:50:35.588Z,27.5
2022-10-05T07:52:51.610Z,27.7
2022-10-05T07:55:07.430Z,29.9
2022-10-05T07:57:23.339Z,29.6
2022-10-05T07:59:38.510Z,29.9
2022-10-05T08:01:53.669Z,26.9
2022-10-05T08:04:09.251Z,27.1
2022-10-05T08:06:25.391Z,33.2
2022-10-05T08:08:41.638Z,33.9
2022-10-05T08:10:56.842Z,33.7
2022-10-05T08:13:12.734Z,31.6
2022-10-05T08:15:28.570Z,39.4
2022-10-05T08:17:43.948Z,40.4
2022-10-05T08:19:58.790Z,34.1
2022-10-05T08:22:14.276Z,35.9
2022-10-05T08:24:29.802Z,43.1
2022-10-05T08:26:44.720Z,36.3
2022-10-05T08:28:59.888Z,36.8
2022-10-05T08:31:14.852Z,36.9
2022-10-05T08:33:29.798Z,37.5
2022-10-05T08:35:44.763Z,38.3
2022-10-05T08:37:59.809Z,38.3
2022-10-05T08:40:14.748Z,38.4
2022-10-05T08:42:29.774Z,39.4
2022-10-05T08:44:45.015Z,39.4
2022-10-05T08:47:00.168Z,39.3
2022-10-05T08:49:15.144Z,39.3
2022-10-05T08:51:30.116Z,39.3
2022-10-05T08:53:45.287Z,40.4
2022-10-05T08:56:00.400Z,40.8
2022-10-05T08:58:15.605Z,40.4
2022-10-05T09:00:30.517Z,40.8
2022-10-05T09:02:45.755Z,41
2022-10-05T09:05:00.732Z,40.7
2022-10-05T09:07:15.907Z,39.2
2022-10-05T09:09:31.021Z,34
2022-10-05T09:11:46.444Z,32.4
2022-10-05T09:14:01.501Z,29.2
2022-10-05T09:16:27.036Z,24.2
2022-10-05T09:18:42.137Z,24.3
2022-10-05T09:20:57.412Z,31.2
2022-10-05T09:23:12.767Z,35.4
2022-10-05T09:25:27.977Z,36.8
2022-10-05T09:27:43.316Z,38.5
2022-10-05T09:29:58.668Z,37.8
2022-10-05T09:32:16.407Z,38.6
2022-10-05T09:34:29.269Z,39.3
2022-10-05T09:36:44.537Z,40.9
2022-10-05T09:38:59.877Z,41.3
2022-10-05T09:41:15.292Z,41.4
2022-10-05T09:43:30.081Z,38.9
2022-10-05T09:45:45.905Z,38.4
2022-10-05T09:48:01.327Z,36.8
2022-10-05T09:50:16.642Z,37.2
2022-10-05T09:52:32.313Z,39.2
2022-10-05T09:54:47.342Z,39.9
2022-10-05T09:57:02.863Z,38.4
2022-10-05T09:59:18.286Z,36.9
2022-10-05T10:01:36.752Z,36.8
2022-10-05T10:03:51.990Z,36.8
2022-10-05T10:06:07.411Z,39.5
2022-10-05T10:08:22.634Z,40.6
2022-10-05T10:10:38.153Z,41
2022-10-05T10:12:53.494Z,41.3
2022-10-05T10:15:08.950Z,40
2022-10-05T10:17:24.437Z,39.8
2022-10-05T10:19:39.991Z,37.6
2022-10-05T10:21:55.289Z,37.6
2022-10-05T10:24:10.761Z,39.6
2022-10-05T10:26:26.318Z,38.6
2022-10-05T10:28:41.710Z,36.9
2022-10-05T10:30:57.127Z,33.6
2022-10-05T10:33:12.604Z,29.8
2022-10-05T10:37:43.918Z,25.6
2022-10-05T10:39:59.080Z,25.4
2022-10-05T10:42:14.554Z,25.1
2022-10-05T10:44:29.966Z,24.6
2022-10-05T10:46:45.504Z,24.4
2022-10-05T10:49:00.897Z,23.6
2022-10-05T10:51:16.888Z,23.2
2022-10-05T10:53:31.832Z,22.7
2022-10-05T10:55:47.303Z,23.1
2022-10-05T10:58:02.773Z,22.6
2022-10-05T11:00:18.289Z,21.5
2022-10-05T11:02:33.750Z,21.2
2022-10-05T11:04:49.168Z,21.3
2022-10-05T11:07:04.608Z,21.2
2022-10-05T11:09:20.174Z,20.9
2022-10-05T11:11:35.659Z,20.6
2022-10-05T11:13:51.136Z,18.8
2022-10-05T11:18:22.205Z,19.5
2022-10-05T11:20:37.558Z,19.5
2022-10-05T11:22:53.477Z,19.1
2022-10-05T11:25:08.631Z,19
2022-10-05T11:27:24.034Z,19
2022-10-05T11:29:39.612Z,19.3
2022-10-05T11:31:55.121Z,18.8
2022-10-05T11:34:10.476Z,18.4
2022-10-05T11:36:25.992Z,18.1
2022-10-05T11:38:41.778Z,17.6
2022-10-05T11:40:56.970Z,17.8
2022-10-05T11:43:12.653Z,17.6
2022-10-05T11:45:28.012Z,17.4
2022-10-05T11:47:43.550Z,17.3
2022-10-05T11:49:59.091Z,16.6
2022-10-05T11:52:14.490Z,16.4
2022-10-05T11:54:32.482Z,15.4
2022-10-05T11:56:58.564Z,15.4
2022-10-05T11:59:13.804Z,15.7
2022-10-05T12:01:29.294Z,15.3
2022-10-05T12:03:44.808Z,15.5
2022-10-05T12:06:00.166Z,15.8
2022-10-05T12:08:15.893Z,15.5
2022-10-05T12:10:31.165Z,14.9
2022-10-05T12:12:46.663Z,15
2022-10-05T12:15:02.191Z,15.6
2022-10-05T12:17:17.634Z,14.7
2022-10-05T12:19:33.134Z,14.7
2022-10-05T12:21:48.576Z,14.6
2022-10-05T12:24:04.106Z,14.8
2022-10-05T12:26:19.683Z,14.7
2022-10-05T12:28:35.204Z,15.1
2022-10-05T12:30:50.785Z,14.9
2022-10-05T12:33:06.090Z,15.2
2022-10-05T12:35:36.469Z,15.2
2022-10-05T12:37:55.646Z,15
2022-10-05T12:40:11.061Z,14.8
2022-10-05T12:42:26.545Z,13.9
2022-10-05T12:44:42.083Z,14.4
2022-10-05T12:46:57.593Z,14.6
2022-10-05T12:49:13.044Z,14.4
2022-10-05T12:51:28.618Z,14.1
2022-10-05T12:53:44.859Z,14.3
2022-10-05T12:55:59.648Z,14.3
2022-10-05T12:58:15.232Z,14.2
2022-10-05T13:00:30.631Z,14.1
2022-10-05T13:02:46.191Z,14.4
2022-10-05T13:05:01.700Z,14.3
2022-10-05T13:07:17.470Z,14.4
2022-10-05T13:09:32.695Z,14.4
2022-10-05T13:11:48.273Z,14.3
2022-10-05T13:14:03.837Z,14.3
2022-10-05T13:16:19.281Z,13.9
2022-10-05T13:18:36.376Z,13.8
2022-10-05T13:20:50.243Z,13.8
2022-10-05T13:23:05.798Z,13.6
2022-10-05T13:25:21.241Z,13.7
2022-10-05T13:27:36.812Z,13.8
2022-10-05T13:29:54.394Z,13.5
2022-10-05T13:32:07.823Z,13.5
2022-10-05T13:34:23.287Z,13.4
2022-10-05T13:36:38.875Z,13.6
2022-10-05T13:38:54.363Z,13.4
2022-10-05T13:41:10.042Z,13.1
2022-10-05T13:43:25.571Z,13.4
2022-10-05T13:45:41.218Z,12.9
2022-10-05T13:47:56.559Z,12.6
2022-10-05T13:50:12.107Z,12.7
2022-10-05T13:52:27.652Z,12.9
2022-10-05T13:54:43.185Z,12.7
2022-10-05T13:56:58.746Z,12.7
2022-10-05T13:59:14.295Z,12.9
2022-10-05T14:01:30.048Z,12.8
2022-10-05T14:03:45.526Z,12.8
2022-10-05T14:06:00.884Z,13.1
2022-10-05T14:08:16.383Z,12.9
2022-10-05T14:10:31.964Z,12.6
2022-10-05T14:12:47.500Z,12.9
2022-10-05T14:15:03.088Z,12.8
2022-10-05T14:17:18.604Z,12.5
2022-10-05T14:19:34.168Z,12.3
2022-10-05T14:21:49.879Z,12.4
2022-10-05T14:24:08.411Z,12.3
2022-10-05T14:26:31.046Z,12.4
2022-10-05T14:28:46.631Z,12.4
2022-10-05T14:31:02.097Z,12.4
2022-10-05T14:33:17.714Z,12.4
2022-10-05T14:35:33.216Z,12.4
2022-10-05T14:37:48.852Z,12.4
2022-10-05T14:40:04.358Z,11.9
2022-10-05T14:42:19.948Z,12.1
2022-10-05T14:44:35.527Z,12.1
2022-10-05T14:46:51.037Z,11.8
2022-10-05T14:49:07.010Z,12
2022-10-05T14:51:22.937Z,11.6
2022-10-05T14:53:39.537Z,16.4
2022-10-05T14:55:55.957Z,16.3
2022-10-05T14:58:12.375Z,16.6
2022-10-05T15:00:27.761Z,15.7
2022-10-05T15:02:42.812Z,12.3
2022-10-05T15:04:58.741Z,11.9
2022-10-05T15:07:14.299Z,16.1
2022-10-05T15:09:29.363Z,11.5
2022-10-05T15:11:45.576Z,11.9
2022-10-05T15:14:02.008Z,16.8
2022-10-05T15:16:19.058Z,16.6
2022-10-05T15:18:34.938Z,15.2
2022-10-05T15:20:51.294Z,16.1
2022-10-05T15:23:07.538Z,16.3
2022-10-05T15:25:23.889Z,16.1
2022-10-05T15:27:38.950Z,15.7
2022-10-05T15:29:54.967Z,12.3
2022-10-05T15:32:11.346Z,16.2
2022-10-05T15:34:28.022Z,15.6
2022-10-05T15:36:44.309Z,15.4
2022-10-05T15:39:00.558Z,15.6
2022-10-05T15:41:15.477Z,11.5
2022-10-05T15:43:30.911Z,15.4
2022-10-05T15:45:49.324Z,10.4
2022-10-05T15:48:03.437Z,15.6
2022-10-05T15:50:19.867Z,14.8
2022-10-05T15:52:36.357Z,14.7
2022-10-05T15:54:53.333Z,15.5
2022-10-05T15:57:09.077Z,14.9
2022-10-05T15:59:25.268Z,15.3
2022-10-05T16:01:41.652Z,14
2022-10-05T16:03:58.139Z,13.6
2022-10-05T16:06:14.463Z,13.7
2022-10-05T16:08:30.856Z,13.3
2022-10-05T16:10:47.188Z,13.5
2022-10-05T16:13:03.529Z,13.8
2022-10-05T16:15:19.863Z,12.9
2022-10-05T16:17:36.402Z,13.3
2022-10-05T16:19:52.835Z,13.1
2022-10-05T16:22:09.038Z,13.9
2022-10-05T16:24:26.100Z,12.7
2022-10-05T16:26:40.918Z,11.9
2022-10-05T16:28:55.934Z,9.4
2022-10-05T16:31:11.211Z,8.4
2022-10-05T16:33:27.561Z,8.8
2022-10-05T16:35:44.224Z,12.3
2022-10-05T16:38:01.022Z,11.9
2022-10-05T16:40:17.738Z,11.4
2022-10-05T16:42:34.346Z,11.6
2022-10-05T16:44:49.865Z,11.7
2022-10-05T16:47:05.985Z,8.7
2022-10-05T16:49:21.631Z,12.1
2022-10-05T16:51:37.919Z,8.3
2022-10-05T16:53:54.683Z,11.4
2022-10-05T16:56:11.347Z,11.3
2022-10-05T16:58:28.135Z,11.8
2022-10-05T17:00:43.571Z,11.9
2022-10-05T17:02:59.886Z,8.6
2022-10-05T17:05:16.902Z,12.3
2022-10-05T17:07:32.208Z,10.9
2022-10-05T17:09:47.450Z,8.9
2022-10-05T17:12:03.797Z,8.5
2022-10-05T17:14:20.610Z,12.6
2022-10-05T17:16:37.376Z,11.9
2022-10-05T17:18:54.130Z,11.4
2022-10-05T17:21:09.801Z,11.1
2022-10-05T17:23:25.948Z,8.3
2022-10-05T17:25:41.594Z,11.6
2022-10-05T17:27:58.053Z,8.3
2022-10-05T17:30:14.752Z,12.8
2022-10-05T17:32:31.456Z,11.6
2022-10-05T17:34:48.189Z,11.1
2022-10-05T17:37:03.727Z,10.8
2022-10-05T17:39:20.028Z,8
2022-10-05T17:41:36.772Z,11.5
2022-10-05T17:43:52.360Z,11.1
2022-10-05T17:46:08.678Z,8.1
2022-10-05T17:48:25.795Z,11.1
2022-10-05T17:50:42.351Z,11.6
2022-10-05T17:53:02.162Z,10.9
2022-10-05T17:55:15.636Z,11.4
2022-10-05T17:57:32.277Z,11.6
2022-10-05T17:59:49.157Z,11.1
2022-10-05T18:02:05.710Z,11.2
2022-10-05T18:04:22.337Z,11.1
2022-10-05T18:06:39.123Z,11.3
2022-10-05T18:08:55.815Z,10.9
2022-10-05T18:11:12.510Z,11.3
2022-10-05T18:13:29.253Z,11
2022-10-05T18:15:46.289Z,11
2022-10-05T18:18:02.646Z,11.1
2022-10-05T18:20:19.278Z,10.5
2022-10-05T18:22:36.084Z,10.9
2022-10-05T18:24:52.820Z,11
2022-10-05T18:27:09.421Z,10.8
2022-10-05T18:29:26.282Z,11.1
2022-10-05T18:31:42.984Z,10.4
2022-10-05T18:33:59.713Z,10.4
2022-10-05T18:36:16.594Z,10.1
2022-10-05T18:38:33.246Z,9.9
2022-10-05T18:40:49.890Z,10
2022-10-05T18:43:06.590Z,10.7
2022-10-05T18:45:23.293Z,10.6
2022-10-05T18:47:40.020Z,10.7
2022-10-05T18:49:56.837Z,10.3
2022-10-05T18:52:13.535Z,10.6
2022-10-05T18:54:30.291Z,10.8
2022-10-05T18:56:47.052Z,11
2022-10-05T18:59:03.793Z,10.6
2022-10-05T19:01:20.719Z,10.6
2022-10-05T19:03:37.403Z,9.9
2022-10-05T19:06:08.360Z,10.1
2022-10-05T19:08:22.598Z,10.1
2022-10-05T19:10:39.219Z,9.9
2022-10-05T19:12:56.063Z,10.2
2022-10-05T19:15:12.741Z,10.6
2022-10-05T19:17:29.504Z,10.5
2022-10-05T19:19:46.444Z,10.4
2022-10-05T19:22:03.125Z,10.4
2022-10-05T19:24:19.923Z,9.9
2022-10-05T19:26:36.600Z,10
2022-10-05T19:28:53.433Z,10.1
2022-10-05T19:31:10.226Z,10.6
2022-10-05T19:33:26.979Z,10.1
2022-10-05T19:35:43.744Z,10.2
2022-10-05T19:38:00.479Z,10.3
2022-10-05T19:40:17.179Z,9.8
2022-10-05T19:42:33.971Z,10.5
2022-10-05T19:44:50.807Z,10.3
2022-10-05T19:47:07.793Z,10.3
2022-10-05T19:49:24.349Z,9.8
2022-10-05T19:51:40.007Z,10
2022-10-05T19:53:56.328Z,7.3
2022-10-05T19:56:13.086Z,10.3
2022-10-05T19:58:29.070Z,10.2
2022-10-05T20:00:45.110Z,6.5
2022-10-05T20:03:02.129Z,10.4
2022-10-05T20:05:18.830Z,9.5
2022-10-05T20:07:35.932Z,9.4
2022-10-05T20:09:52.635Z,9.5
2022-10-05T20:12:08.200Z,9
2022-10-05T20:14:24.429Z,6.8
2022-10-05T20:16:41.351Z,9.9
2022-10-05T20:18:58.090Z,9.5
2022-10-05T20:21:14.891Z,9.3
2022-10-05T20:23:31.839Z,9.3
2022-10-05T20:25:48.691Z,9.8
2022-10-05T20:28:05.473Z,9.6
2022-10-05T20:30:22.150Z,9.5
2022-10-05T20:32:39.303Z,9.8
2022-10-05T20:34:54.536Z,9.3
2022-10-05T20:37:09.815Z,6.4
2022-10-05T20:39:26.594Z,6.3
2022-10-05T20:41:43.251Z,10.4
2022-10-05T20:44:00.117Z,9.9
2022-10-05T20:46:16.958Z,9.1
2022-10-05T20:48:33.837Z,9
2022-10-05T20:50:50.612Z,9.3
2022-10-05T20:53:11.067Z,9.5
2022-10-05T20:55:24.156Z,9.1
2022-10-05T20:57:40.950Z,8.9
2022-10-05T20:59:57.796Z,9.3
2022-10-05T21:02:14.612Z,9.1
2022-10-05T21:04:36.008Z,9.2
2022-10-05T21:06:48.189Z,9.2
2022-10-05T21:09:05.016Z,9.4
2022-10-05T21:11:21.868Z,9.4
2022-10-05T21:13:38.690Z,9.4
2022-10-05T21:15:55.600Z,9.2
2022-10-05T21:18:12.452Z,9.7
2022-10-05T21:20:29.084Z,9.1
2022-10-05T21:22:45.893Z,9.7
2022-10-05T21:25:02.712Z,9
2022-10-05T21:27:19.594Z,9
2022-10-05T21:29:36.227Z,9.1
2022-10-05T21:31:53.142Z,9.1
2022-10-05T21:34:09.893Z,9.3
2022-10-05T21:36:26.632Z,9
2022-10-05T21:38:43.433Z,9.2
2022-10-05T21:41:00.907Z,8.9
2022-10-05T21:43:17.232Z,9.1
2022-10-05T21:45:34.022Z,8.9
2022-10-05T21:47:50.792Z,9
2022-10-05T21:50:07.566Z,9
2022-10-05T21:52:23.312Z,9.1
2022-10-05T21:54:38.490Z,5.6
2022-10-05T21:56:55.309Z,5.1
2022-10-05T21:59:12.000Z,9.8
2022-10-05T22:01:28.953Z,9.2
2022-10-05T22:03:46.062Z,8.8
2022-10-05T22:06:02.643Z,8
2022-10-05T22:08:19.393Z,8.8
2022-10-05T22:10:36.211Z,8.3
2022-10-05T22:12:53.040Z,8.8
2022-10-05T22:15:09.942Z,8.8
2022-10-05T22:17:26.708Z,8.6
2022-10-05T22:19:43.577Z,8.5
2022-10-05T22:22:00.410Z,8.8
2022-10-05T22:24:17.418Z,8.8
2022-10-05T22:26:34.112Z,8.3
2022-10-05T22:28:50.949Z,8.3
2022-10-05T22:31:07.774Z,8.3
2022-10-05T22:33:24.634Z,8.8
2022-10-05T22:35:41.411Z,8.9
2022-10-05T22:37:58.306Z,8.5
2022-10-05T22:40:15.123Z,9.1
2022-10-05T22:42:31.943Z,7.8
2022-10-05T22:44:48.762Z,8.6
2022-10-05T22:47:05.551Z,8.9
2022-10-05T22:49:22.619Z,8.4
2022-10-05T22:51:38.089Z,7.9
2022-10-05T22:53:54.445Z,5.1
2022-10-05T22:56:10.318Z,9.3
2022-10-05T22:58:27.138Z,4.9
2022-10-05T23:00:59.016Z,9.4
2022-10-05T23:03:15.985Z,8.4
2022-10-05T23:05:32.769Z,8.6
2022-10-05T23:07:49.607Z,7.9
2022-10-05T23:10:06.540Z,8.3
2022-10-05T23:12:23.439Z,8.4
2022-10-05T23:14:41.028Z,8.2
2022-10-05T23:16:56.730Z,8.9
2022-10-05T23:19:11.293Z,4.9
2022-10-05T23:21:27.912Z,4.7
2022-10-05T23:23:44.882Z,8.7
2022-10-05T23:26:01.764Z,8.6
2022-10-05T23:28:18.630Z,8.8
2022-10-05T23:30:35.486Z,8.2
2022-10-05T23:32:52.463Z,8.3
2022-10-05T23:35:09.338Z,8.3
2022-10-05T23:37:26.134Z,7.6
2022-10-05T23:39:43.125Z,8
2022-10-05T23:41:59.883Z,8.1
2022-10-05T23:44:16.807Z,7.6
2022-10-05T23:46:33.809Z,7.3
2022-10-05T23:48:50.516Z,6.9
2022-10-05T23:51:07.453Z,7.4
2022-10-05T23:53:24.363Z,8.1
2022-10-05T23:55:41.219Z,7.3
2022-10-05T23:57:58.288Z,7.3
